Time;durP1;ratioP1;P1;durP2;ratioP2;P2;SDS_P1;SDS_P2;PMS_P1;PMS_P2;Temp;Humidity;BMP_temperature;BMP_pressure;BME280_temperature;BME280_humidity;BME280_pressure;Samples;Min_cycle;Max_cycle;Signal;HPM_P1;HPM_P2
2022/11/27 00:00:40;;;;;;;;;;;4.40;84.60;;;;;;5073504;28;19938;-90
2022/11/27 00:03:06;;;;;;;;;;;4.40;84.50;;;;;;5073351;28;20445;-91
2022/11/27 00:05:31;;;;;;;;;;;4.20;84.30;;;;;;5073397;28;19952;-90
2022/11/27 00:07:57;;;;;;;;;;;4.30;84.10;;;;;;5073305;28;20394;-90
2022/11/27 00:10:22;;;;;;;;;;;4.20;84.10;;;;;;5072978;28;19958;-90
2022/11/27 00:12:48;;;;;;;;;;;4.20;84.00;;;;;;5073115;28;19951;-90
2022/11/27 00:15:14;;;;;;;;;;;4.20;83.70;;;;;;5073236;28;19936;-90
2022/11/27 00:17:39;;;;;;;;;;;4.20;83.80;;;;;;5073285;28;19969;-90
2022/11/27 00:20:05;;;;;;;;;;;4.10;83.50;;;;;;5073184;28;19982;-90
2022/11/27 00:22:31;;;;;;;;;;;4.00;83.90;;;;;;5072972;28;20415;-90
2022/11/27 00:24:56;;;;;;;;;;;4.00;84.50;;;;;;5073184;28;19946;-90
2022/11/27 00:27:22;;;;;;;;;;;3.90;85.40;;;;;;5073117;28;20357;-90
2022/11/27 00:29:47;;;;;;;;;;;3.90;85.80;;;;;;5073056;28;19962;-91
2022/11/27 00:32:13;;;;;;;;;;;3.90;85.80;;;;;;5073098;28;20391;-90
2022/11/27 00:34:38;;;;;;;;;;;3.90;85.40;;;;;;5073092;28;19981;-90
2022/11/27 00:37:06;;;;;;;;;;;3.90;83.30;;;;;;5073100;28;19951;-90
2022/11/27 00:39:31;;;;;;;;;;;3.90;84.00;;;;;;5072811;28;19981;-90
2022/11/27 00:41:57;;;;;;;;;;;3.80;84.20;;;;;;5072712;28;20010;-90
2022/11/27 00:44:22;;;;;;;;;;;3.80;85.10;;;;;;5073027;28;19949;-90
2022/11/27 00:46:48;;;;;;;;;;;3.80;86.10;;;;;;5073031;28;19939;-90
2022/11/27 00:49:14;;;;;;;;;;;3.80;87.00;;;;;;5076595;28;19964;-90
2022/11/27 00:51:40;;;;;;;;;;;3.70;87.10;;;;;;5077254;28;19969;-90
2022/11/27 00:54:05;;;;;;;;;;;3.70;87.30;;;;;;5075581;28;20406;-90
2022/11/27 00:56:32;;;;;;;;;;;3.70;87.50;;;;;;5076979;28;19974;-90
2022/11/27 00:58:58;;;;;;;;;;;3.60;87.60;;;;;;5076861;28;20007;-90
2022/11/27 01:01:26;;;;;;;;;;;3.60;87.60;;;;;;5076847;28;20004;-90
2022/11/27 01:03:51;;;;;;;;;;;3.60;88.00;;;;;;5076853;28;19942;-90
2022/11/27 01:06:18;;;;;;;;;;;3.60;88.40;;;;;;5076449;28;19938;-90
2022/11/27 01:08:43;;;;;;;;;;;3.70;89.00;;;;;;5076511;28;20390;-90
2022/11/27 01:11:18;;;;;;;;;;;3.70;87.70;;;;;;5076597;28;19956;-90
2022/11/27 01:13:44;;;;;;;;;;;3.70;87.10;;;;;;5076643;28;19936;-90
2022/11/27 01:16:12;;;;;;;;;;;3.70;85.80;;;;;;5076868;28;19934;-90
2022/11/27 01:18:39;;;;;;;;;;;3.60;86.20;;;;;;5076510;28;19988;-90
2022/11/27 01:21:05;;;;;;;;;;;3.50;87.10;;;;;;5076492;28;19946;-90
2022/11/27 01:23:30;;;;;;;;;;;3.40;89.40;;;;;;5076320;28;20048;-90
2022/11/27 01:25:56;;;;;;;;;;;3.40;89.30;;;;;;5076363;28;19974;-90
2022/11/27 01:28:22;;;;;;;;;;;3.40;89.90;;;;;;5076262;28;19937;-90
2022/11/27 01:30:48;;;;;;;;;;;3.40;89.40;;;;;;5076243;28;19961;-90
2022/11/27 01:33:14;;;;;;;;;;;3.40;89.10;;;;;;5076256;28;19987;-91
2022/11/27 01:35:39;;;;;;;;;;;3.40;88.90;;;;;;5076177;28;19942;-90
2022/11/27 01:38:05;;;;;;;;;;;3.40;88.80;;;;;;5075908;28;20332;-90
2022/11/27 01:40:30;;;;;;;;;;;3.40;87.90;;;;;;5076100;28;20312;-90
2022/11/27 01:42:56;;;;;;;;;;;3.40;88.10;;;;;;5076052;28;19986;-90
2022/11/27 01:45:22;;;;;;;;;;;3.50;88.70;;;;;;5076053;28;20010;-91
2022/11/27 01:47:59;;;;;;;;;;;3.60;88.20;;;;;;5075988;28;20398;-90
2022/11/27 01:50:30;;;;;;;;;;;3.60;87.70;;;;;;5075882;28;19971;-90
2022/11/27 01:53:01;;;;;;;;;;;3.60;86.50;;;;;;5075335;28;20098;-90
2022/11/27 01:55:38;;;;;;;;;;;3.60;85.60;;;;;;5075486;28;19948;-90
2022/11/27 01:58:06;;;;;;;;;;;3.70;86.20;;;;;;5075800;28;19959;-90
2022/11/27 02:00:32;;;;;;;;;;;3.60;86.00;;;;;;5074817;28;19945;-90
2022/11/27 02:02:58;;;;;;;;;;;3.50;86.00;;;;;;5075732;28;19942;-90
2022/11/27 02:05:27;;;;;;;;;;;3.50;85.90;;;;;;5075679;28;20420;-90
2022/11/27 02:07:53;;;;;;;;;;;3.50;85.80;;;;;;5075659;28;19970;-90
2022/11/27 02:10:19;;;;;;;;;;;3.40;85.90;;;;;;5075517;28;19961;-90
2022/11/27 02:13:05;;;;;;;;;;;3.40;85.90;;;;;;5075597;28;19946;-90
2022/11/27 02:15:42;;;;;;;;;;;3.40;85.80;;;;;;5054976;28;19947;-90
2022/11/27 02:18:24;;;;;;;;;;;3.20;85.80;;;;;;5055434;28;19938;-90
2022/11/27 02:21:07;;;;;;;;;;;3.10;86.30;;;;;;5062842;28;19973;-90
2022/11/27 02:23:47;;;;;;;;;;;3.20;86.30;;;;;;5075147;28;20381;-90
2022/11/27 02:26:25;;;;;;;;;;;3.30;86.60;;;;;;5075349;28;19945;-90
2022/11/27 02:28:50;;;;;;;;;;;3.40;86.50;;;;;;5075265;28;19937;-90
2022/11/27 02:31:19;;;;;;;;;;;3.50;86.20;;;;;;5074891;28;19961;-90
2022/11/27 02:33:49;;;;;;;;;;;3.50;86.20;;;;;;5074909;28;19951;-90
2022/11/27 02:36:18;;;;;;;;;;;3.50;86.20;;;;;;5075138;28;19949;-90
2022/11/27 02:38:46;;;;;;;;;;;3.50;86.20;;;;;;5075037;28;20415;-90
2022/11/27 02:41:18;;;;;;;;;;;3.50;86.10;;;;;;5074792;28;19953;-91
2022/11/27 02:43:50;;;;;;;;;;;3.50;85.80;;;;;;5074962;28;20411;-90
2022/11/27 02:46:17;;;;;;;;;;;3.50;85.30;;;;;;5074910;28;20056;-90
2022/11/27 02:48:44;;;;;;;;;;;3.40;85.20;;;;;;5075155;28;19939;-89
2022/11/27 02:51:10;;;;;;;;;;;3.40;85.40;;;;;;5074624;28;19956;-90
2022/11/27 02:53:37;;;;;;;;;;;3.40;85.90;;;;;;5074535;28;19954;-90
2022/11/27 02:56:07;;;;;;;;;;;3.40;86.80;;;;;;5074764;28;19980;-90
2022/11/27 02:58:34;;;;;;;;;;;3.40;86.30;;;;;;5074693;28;19943;-90
2022/11/27 03:01:01;;;;;;;;;;;3.40;86.20;;;;;;5074318;28;20390;-90
2022/11/27 03:03:31;;;;;;;;;;;3.40;86.00;;;;;;5074554;28;19939;-90
2022/11/27 03:06:00;;;;;;;;;;;3.20;86.10;;;;;;5074523;28;20005;-90
2022/11/27 03:08:25;;;;;;;;;;;3.20;86.20;;;;;;5074472;28;19937;-90
2022/11/27 03:10:55;;;;;;;;;;;3.20;86.40;;;;;;5073899;28;20018;-90
2022/11/27 03:13:21;;;;;;;;;;;3.20;86.60;;;;;;5074353;28;19937;-90
2022/11/27 03:15:57;;;;;;;;;;;3.20;86.90;;;;;;5073011;28;19941;-90
2022/11/27 03:18:29;;;;;;;;;;;3.20;87.50;;;;;;5074280;28;19957;-90
2022/11/27 03:21:00;;;;;;;;;;;3.20;87.40;;;;;;5073957;28;19942;-90
2022/11/27 03:23:26;;;;;;;;;;;3.10;87.40;;;;;;5073396;28;19997;-90
2022/11/27 03:25:52;;;;;;;;;;;3.10;87.30;;;;;;5074137;28;19945;-89
2022/11/27 03:28:17;;;;;;;;;;;3.10;87.70;;;;;;5074044;28;19943;-90
2022/11/27 03:30:43;;;;;;;;;;;3.00;87.30;;;;;;5073619;28;20023;-90
2022/11/27 03:33:08;;;;;;;;;;;3.00;87.50;;;;;;5073950;28;19946;-90
2022/11/27 03:35:34;;;;;;;;;;;3.00;88.00;;;;;;5073882;28;20564;-90
2022/11/27 03:38:00;;;;;;;;;;;3.10;88.80;;;;;;5073860;28;20021;-90
2022/11/27 03:40:31;;;;;;;;;;;3.00;88.70;;;;;;5073067;28;19949;-90
2022/11/27 03:43:07;;;;;;;;;;;3.00;88.50;;;;;;5073807;28;19947;-90
2022/11/27 03:45:48;;;;;;;;;;;3.00;88.40;;;;;;5073748;28;19942;-90
2022/11/27 03:48:34;;;;;;;;;;;3.00;88.30;;;;;;5073931;28;19943;-90
2022/11/27 03:51:04;;;;;;;;;;;3.00;88.20;;;;;;5073314;28;19959;-90
2022/11/27 03:53:37;;;;;;;;;;;3.00;88.00;;;;;;5073428;28;20010;-90
2022/11/27 03:56:10;;;;;;;;;;;2.90;88.00;;;;;;5073586;28;20078;-90
2022/11/27 03:58:37;;;;;;;;;;;2.90;88.00;;;;;;5073533;28;19948;-90
2022/11/27 04:01:05;;;;;;;;;;;2.90;88.40;;;;;;5073199;28;20422;-90
2022/11/27 04:03:30;;;;;;;;;;;2.90;88.40;;;;;;5073279;28;19944;-90
2022/11/27 04:05:56;;;;;;;;;;;2.90;88.10;;;;;;5073439;28;19959;-90
2022/11/27 04:08:22;;;;;;;;;;;2.90;88.10;;;;;;5073393;28;20423;-90
2022/11/27 04:10:47;;;;;;;;;;;2.90;87.80;;;;;;5073073;28;20427;-90
2022/11/27 04:13:13;;;;;;;;;;;2.90;88.00;;;;;;5073099;28;19946;-90
2022/11/27 04:15:39;;;;;;;;;;;2.90;87.80;;;;;;5073346;28;20390;-90
2022/11/27 04:18:04;;;;;;;;;;;2.80;87.40;;;;;;5073476;28;19943;-90
2022/11/27 04:20:30;;;;;;;;;;;2.70;87.30;;;;;;5073101;28;20359;-89
2022/11/27 04:22:56;;;;;;;;;;;2.80;87.40;;;;;;5072570;28;20500;-89
2022/11/27 04:25:21;;;;;;;;;;;2.80;86.90;;;;;;5073215;28;19966;-91
2022/11/27 04:27:47;;;;;;;;;;;2.80;86.70;;;;;;5073149;28;20418;-90
2022/11/27 04:30:13;;;;;;;;;;;2.80;86.70;;;;;;5072779;28;19963;-90
2022/11/27 04:32:39;;;;;;;;;;;2.70;87.10;;;;;;5073172;28;19939;-90
2022/11/27 04:35:04;;;;;;;;;;;2.60;86.40;;;;;;5072732;28;19944;-90
2022/11/27 04:37:30;;;;;;;;;;;2.60;86.80;;;;;;5073186;28;20018;-90
2022/11/27 04:39:56;;;;;;;;;;;2.60;86.70;;;;;;5073085;28;20393;-89
2022/11/27 04:42:21;;;;;;;;;;;2.70;87.20;;;;;;5072752;28;20468;-90
2022/11/27 04:44:47;;;;;;;;;;;2.70;87.40;;;;;;5073017;28;20445;-90
2022/11/27 04:47:12;;;;;;;;;;;2.70;87.10;;;;;;5072975;28;19941;-90
2022/11/27 04:49:38;;;;;;;;;;;2.60;87.10;;;;;;5072877;28;19983;-90
2022/11/27 04:52:04;;;;;;;;;;;2.70;87.30;;;;;;5072488;28;19989;-90
2022/11/27 04:54:29;;;;;;;;;;;2.70;86.60;;;;;;5072849;28;19938;-90
2022/11/27 04:56:55;;;;;;;;;;;2.80;86.20;;;;;;5072838;28;19941;-90
2022/11/27 04:59:21;;;;;;;;;;;2.80;86.20;;;;;;5072868;28;20072;-90
2022/11/27 05:01:46;;;;;;;;;;;2.70;86.00;;;;;;5072664;28;19990;-90
2022/11/27 05:04:12;;;;;;;;;;;2.90;85.70;;;;;;5072802;28;20102;-90
2022/11/27 05:06:37;;;;;;;;;;;2.80;85.40;;;;;;5072738;28;20354;-90
2022/11/27 05:09:03;;;;;;;;;;;2.70;85.70;;;;;;5072938;28;19942;-90
2022/11/27 05:11:29;;;;;;;;;;;2.60;86.40;;;;;;5072312;28;20358;-90
2022/11/27 05:16:59;;;;;;;;;;;2.60;87.90;;;;;;5072673;28;20313;-90
2022/11/27 05:19:26;;;;;;;;;;;2.70;88.40;;;;;;5072150;28;19957;-91
2022/11/27 05:21:53;;;;;;;;;;;2.60;88.70;;;;;;5072331;28;19954;-90
2022/11/27 05:24:20;;;;;;;;;;;2.60;88.70;;;;;;5072387;28;20042;-90
2022/11/27 05:26:46;;;;;;;;;;;2.70;88.70;;;;;;5072609;28;19998;-90
2022/11/27 05:29:12;;;;;;;;;;;2.70;88.30;;;;;;5072123;28;19953;-90
2022/11/27 05:31:38;;;;;;;;;;;2.70;88.20;;;;;;5070859;28;19949;-90
2022/11/27 05:34:04;;;;;;;;;;;2.80;88.00;;;;;;5072774;28;20327;-91
2022/11/27 05:36:30;;;;;;;;;;;2.80;87.90;;;;;;5076227;28;19949;-90
2022/11/27 05:38:55;;;;;;;;;;;2.80;87.70;;;;;;5075902;28;19952;-90
2022/11/27 05:41:21;;;;;;;;;;;2.80;87.30;;;;;;5076093;28;20320;-89
2022/11/27 05:43:47;;;;;;;;;;;2.80;86.90;;;;;;5076051;28;20035;-90
2022/11/27 05:46:14;;;;;;;;;;;2.90;86.80;;;;;;5076100;28;19990;-91
2022/11/27 05:48:39;;;;;;;;;;;2.90;86.70;;;;;;5076032;28;19944;-90
2022/11/27 05:51:05;;;;;;;;;;;2.90;86.40;;;;;;5075850;28;19968;-90
2022/11/27 05:53:31;;;;;;;;;;;2.90;86.40;;;;;;5075771;28;19953;-90
2022/11/27 05:56:00;;;;;;;;;;;2.90;86.30;;;;;;5075615;28;20314;-89
2022/11/27 05:58:26;;;;;;;;;;;2.90;86.10;;;;;;5075837;28;19941;-90
2022/11/27 06:00:51;;;;;;;;;;;2.90;86.10;;;;;;5074512;28;20311;-90
2022/11/27 06:03:17;;;;;;;;;;;2.90;86.00;;;;;;5075701;28;20465;-90
2022/11/27 06:05:42;;;;;;;;;;;2.90;86.00;;;;;;5075436;28;20425;-90
2022/11/27 06:08:08;;;;;;;;;;;2.90;85.60;;;;;;5075506;28;20318;-90
2022/11/27 06:10:33;;;;;;;;;;;2.90;85.40;;;;;;5075523;28;19961;-90
2022/11/27 06:12:59;;;;;;;;;;;2.70;85.60;;;;;;5075573;28;20386;-90
2022/11/27 06:15:24;;;;;;;;;;;2.70;85.50;;;;;;5075335;28;20407;-90
2022/11/27 06:17:50;;;;;;;;;;;2.70;85.50;;;;;;5075466;28;19945;-89
2022/11/27 06:20:15;;;;;;;;;;;2.60;85.70;;;;;;5075389;28;20387;-90
2022/11/27 06:22:41;;;;;;;;;;;2.60;85.90;;;;;;5075305;28;20015;-90
2022/11/27 06:25:07;;;;;;;;;;;2.60;86.30;;;;;;5075023;28;20478;-90
2022/11/27 06:27:33;;;;;;;;;;;2.50;86.10;;;;;;5074904;28;20052;-90
2022/11/27 06:29:58;;;;;;;;;;;2.50;86.10;;;;;;5075170;28;19961;-90
2022/11/27 06:32:24;;;;;;;;;;;2.40;86.20;;;;;;5075216;28;19946;-90
2022/11/27 06:34:49;;;;;;;;;;;2.40;86.60;;;;;;5074927;28;20416;-90
2022/11/27 06:37:15;;;;;;;;;;;2.40;87.00;;;;;;5074696;28;20323;-90
2022/11/27 06:39:40;;;;;;;;;;;2.50;88.00;;;;;;5074816;28;20474;-90
2022/11/27 06:42:06;;;;;;;;;;;2.50;87.50;;;;;;5075285;28;20029;-90
2022/11/27 06:44:31;;;;;;;;;;;2.50;87.60;;;;;;5074669;28;20444;-90
2022/11/27 06:46:57;;;;;;;;;;;2.50;87.70;;;;;;5074479;28;20030;-90
2022/11/27 06:49:22;;;;;;;;;;;2.50;87.80;;;;;;5074789;28;19937;-90
2022/11/27 06:51:49;;;;;;;;;;;2.50;87.40;;;;;;5074729;28;19940;-90
2022/11/27 06:54:14;;;;;;;;;;;2.50;86.90;;;;;;5074447;28;19952;-90
2022/11/27 06:56:40;;;;;;;;;;;2.50;87.30;;;;;;5074701;28;19941;-90
2022/11/27 06:59:05;;;;;;;;;;;2.50;87.30;;;;;;5074682;28;19954;-90
2022/11/27 07:01:31;;;;;;;;;;;2.60;87.60;;;;;;5074621;28;19991;-90
2022/11/27 07:03:57;;;;;;;;;;;2.50;87.60;;;;;;5074347;28;19994;-90
2022/11/27 07:06:23;;;;;;;;;;;2.60;87.80;;;;;;5074554;28;20040;-90
2022/11/27 07:08:49;;;;;;;;;;;2.60;87.80;;;;;;5074533;28;20015;-90
2022/11/27 07:11:19;;;;;;;;;;;2.70;88.10;;;;;;5074345;28;20535;-90
2022/11/27 07:13:45;;;;;;;;;;;2.70;88.10;;;;;;5074000;28;19944;-90
2022/11/27 07:16:11;;;;;;;;;;;2.70;88.10;;;;;;5074311;28;20411;-90
2022/11/27 07:18:45;;;;;;;;;;;2.80;88.00;;;;;;5074538;28;19977;-90
2022/11/27 07:21:11;;;;;;;;;;;2.80;87.80;;;;;;5074239;28;19951;-90
2022/11/27 07:23:36;;;;;;;;;;;2.80;87.80;;;;;;5080924;22;20002;-90
2022/11/27 07:26:09;;;;;;;;;;;2.90;87.70;;;;;;5073673;28;20387;-90
2022/11/27 07:28:35;;;;;;;;;;;3.00;87.70;;;;;;5073883;28;20044;-90
2022/11/27 07:31:01;;;;;;;;;;;3.10;87.50;;;;;;5073936;28;20015;-90
2022/11/27 07:33:27;;;;;;;;;;;3.10;87.50;;;;;;5073967;28;19991;-90
2022/11/27 07:36:06;;;;;;;;;;;3.20;87.50;;;;;;5073692;28;19965;-90
2022/11/27 07:38:32;;;;;;;;;;;3.20;87.60;;;;;;5073835;28;20348;-90
2022/11/27 07:40:58;;;;;;;;;;;3.30;87.40;;;;;;5073820;28;19939;-90
2022/11/27 07:43:23;;;;;;;;;;;3.40;87.10;;;;;;5073788;28;20024;-90
2022/11/27 07:45:49;;;;;;;;;;;3.50;86.80;;;;;;5073345;28;20426;-90
2022/11/27 07:48:15;;;;;;;;;;;3.60;86.20;;;;;;5073718;28;19995;-89
2022/11/27 07:50:40;;;;;;;;;;;3.80;85.50;;;;;;5073849;28;20057;-90
2022/11/27 07:53:06;;;;;;;;;;;3.80;85.50;;;;;;5061089;28;20464;-90
2022/11/27 07:55:31;;;;;;;;;;;3.90;85.40;;;;;;5053381;28;19968;-90
2022/11/27 07:57:57;;;;;;;;;;;4.10;85.10;;;;;;5052870;28;20426;-90
2022/11/27 08:00:23;;;;;;;;;;;4.20;84.80;;;;;;5053569;28;19951;-90
2022/11/27 08:02:49;;;;;;;;;;;4.30;84.50;;;;;;5053526;28;19943;-90
2022/11/27 08:05:15;;;;;;;;;;;4.40;84.20;;;;;;5053210;28;20059;-90
2022/11/27 08:07:40;;;;;;;;;;;4.50;84.00;;;;;;5053479;28;20309;-90
2022/11/27 08:10:06;;;;;;;;;;;4.60;83.90;;;;;;5053319;28;19960;-90
2022/11/27 08:12:32;;;;;;;;;;;4.70;83.90;;;;;;5053374;28;19981;-90
2022/11/27 08:14:57;;;;;;;;;;;4.80;83.90;;;;;;5053133;28;19943;-91
2022/11/27 08:17:23;;;;;;;;;;;4.90;84.00;;;;;;5053329;28;19944;-90
2022/11/27 08:19:48;;;;;;;;;;;5.00;84.00;;;;;;5053255;28;19968;-90
2022/11/27 08:22:15;;;;;;;;;;;5.10;83.90;;;;;;5052072;28;20025;-91
2022/11/27 08:24:41;;;;;;;;;;;5.20;84.10;;;;;;5052818;28;19984;-90
2022/11/27 08:27:09;;;;;;;;;;;5.30;83.90;;;;;;5053260;28;19997;-90
2022/11/27 08:29:35;;;;;;;;;;;5.40;83.80;;;;;;5053080;28;20434;-90
2022/11/27 08:32:01;;;;;;;;;;;5.60;83.10;;;;;;5053166;28;19936;-91
2022/11/27 08:34:26;;;;;;;;;;;5.70;82.50;;;;;;5052875;28;19949;-90
2022/11/27 08:36:52;;;;;;;;;;;5.90;81.70;;;;;;5053097;28;19940;-90
2022/11/27 08:39:18;;;;;;;;;;;6.00;81.30;;;;;;5053034;28;20039;-90
2022/11/27 08:41:44;;;;;;;;;;;6.10;80.90;;;;;;5053069;28;19961;-90
2022/11/27 08:44:09;;;;;;;;;;;6.30;80.20;;;;;;5051440;28;20384;-90
2022/11/27 08:46:35;;;;;;;;;;;6.40;79.80;;;;;;5053002;28;19998;-90
2022/11/27 08:49:01;;;;;;;;;;;6.60;79.00;;;;;;5052595;28;19953;-91
2022/11/27 08:51:27;;;;;;;;;;;6.70;78.60;;;;;;5052544;28;19966;-90
2022/11/27 08:53:52;;;;;;;;;;;6.90;77.80;;;;;;5052625;28;20054;-90
2022/11/27 08:56:20;;;;;;;;;;;7.00;76.70;;;;;;5052865;28;19942;-90
2022/11/27 08:58:46;;;;;;;;;;;7.20;75.80;;;;;;5052873;28;19945;-90
2022/11/27 09:01:19;;;;;;;;;;;7.40;75.20;;;;;;5052656;28;19941;-90
2022/11/27 09:03:45;;;;;;;;;;;7.70;73.70;;;;;;5052946;28;20023;-90
2022/11/27 09:06:11;;;;;;;;;;;7.90;72.70;;;;;;5052754;28;19979;-90
2022/11/27 09:08:38;;;;;;;;;;;8.00;72.60;;;;;;5053709;28;19941;-90
2022/11/27 09:11:03;;;;;;;;;;;8.10;72.20;;;;;;5056533;28;20063;-90
2022/11/27 09:13:29;;;;;;;;;;;8.30;71.90;;;;;;5056096;28;20036;-90
2022/11/27 09:15:56;;;;;;;;;;;8.40;71.70;;;;;;5056390;28;19950;-89
2022/11/27 09:18:21;;;;;;;;;;;8.50;70.50;;;;;;5056158;28;19997;-90
2022/11/27 09:20:57;;;;;;;;;;;8.60;70.20;;;;;;5056615;28;19946;-90
2022/11/27 09:23:23;;;;;;;;;;;8.70;70.40;;;;;;5056133;28;20063;-90
2022/11/27 09:25:49;;;;;;;;;;;8.80;70.60;;;;;;5056159;28;19984;-90
2022/11/27 09:28:14;;;;;;;;;;;8.90;69.80;;;;;;5056496;28;19988;-90
2022/11/27 09:30:40;;;;;;;;;;;9.10;68.40;;;;;;5056325;28;20053;-90
2022/11/27 09:33:05;;;;;;;;;;;9.20;67.80;;;;;;5056333;28;19955;-91
2022/11/27 09:35:31;;;;;;;;;;;9.30;68.30;;;;;;5056011;28;19951;-91
2022/11/27 09:37:56;;;;;;;;;;;9.40;68.10;;;;;;5056280;28;19941;-90
2022/11/27 09:40:22;;;;;;;;;;;9.40;67.60;;;;;;5056230;28;20405;-90
2022/11/27 09:42:49;;;;;;;;;;;9.60;67.00;;;;;;5056154;28;19937;-90
2022/11/27 09:45:16;;;;;;;;;;;9.70;67.30;;;;;;5055851;28;20391;-90
2022/11/27 09:47:41;;;;;;;;;;;9.80;67.70;;;;;;5056120;28;19979;-90
2022/11/27 09:50:07;;;;;;;;;;;9.90;67.60;;;;;;5055994;28;20001;-90
2022/11/27 09:52:39;;;;;;;;;;;10.00;67.80;;;;;;5055907;28;19958;-90
2022/11/27 09:55:23;;;;;;;;;;;10.00;67.50;;;;;;5055648;28;19940;-89
2022/11/27 09:58:02;;;;;;;;;;;10.20;65.30;;;;;;5055896;28;19947;-90
2022/11/27 10:00:27;;;;;;;;;;;10.40;65.00;;;;;;5056192;28;19945;-90
2022/11/27 10:02:53;;;;;;;;;;;10.40;64.60;;;;;;5054515;28;20387;-90
2022/11/27 10:05:23;;;;;;;;;;;10.40;64.10;;;;;;5053596;28;19938;-90
2022/11/27 10:08:07;;;;;;;;;;;10.50;63.60;;;;;;5054185;28;19993;-90
2022/11/27 10:10:52;;;;;;;;;;;10.60;63.30;;;;;;5051231;28;19959;-91
2022/11/27 10:13:28;;;;;;;;;;;10.70;61.10;;;;;;5055050;28;20039;-90
2022/11/27 10:16:02;;;;;;;;;;;10.80;61.20;;;;;;5055512;28;20319;-91
2022/11/27 10:18:38;;;;;;;;;;;10.90;59.80;;;;;;5055487;28;19943;-91
2022/11/27 10:21:13;;;;;;;;;;;11.00;59.60;;;;;;5054708;28;19968;-90
2022/11/27 10:23:45;;;;;;;;;;;10.90;59.10;;;;;;5054886;28;19995;-90
2022/11/27 10:26:18;;;;;;;;;;;11.00;59.90;;;;;;5055615;28;19954;-90
2022/11/27 10:28:52;;;;;;;;;;;11.10;60.30;;;;;;5055355;28;19946;-91
2022/11/27 10:31:25;;;;;;;;;;;11.20;59.90;;;;;;5054627;28;19956;-91
2022/11/27 10:33:53;;;;;;;;;;;11.30;60.60;;;;;;5055461;28;20015;-91
2022/11/27 10:36:25;;;;;;;;;;;11.30;59.20;;;;;;5055172;28;20418;-90
2022/11/27 10:38:53;;;;;;;;;;;11.40;57.20;;;;;;5054864;28;20025;-90
2022/11/27 10:41:38;;;;;;;;;;;11.40;58.20;;;;;;5054406;28;20039;-90
2022/11/27 10:44:19;;;;;;;;;;;11.40;57.80;;;;;;5054198;28;19983;-91
2022/11/27 10:46:45;;;;;;;;;;;11.50;57.90;;;;;;5054795;28;19939;-91
2022/11/27 10:49:10;;;;;;;;;;;11.60;58.50;;;;;;5053753;28;20468;-91
2022/11/27 10:51:37;;;;;;;;;;;11.70;57.40;;;;;;5053301;28;19967;-91
2022/11/27 10:54:04;;;;;;;;;;;11.90;57.10;;;;;;5053635;28;19942;-92
2022/11/27 10:56:48;;;;;;;;;;;12.00;56.90;;;;;;5054542;28;19986;-91
2022/11/27 10:59:26;;;;;;;;;;;12.10;57.20;;;;;;5054756;28;19941;-91
2022/11/27 11:01:56;;;;;;;;;;;12.30;57.20;;;;;;5054717;28;19992;-91
2022/11/27 11:04:25;;;;;;;;;;;12.50;56.60;;;;;;5054007;28;19947;-91
2022/11/27 11:06:50;;;;;;;;;;;12.70;56.10;;;;;;5054600;28;19944;-91
2022/11/27 11:09:18;;;;;;;;;;;12.90;56.80;;;;;;5054476;28;19974;-91
2022/11/27 11:11:43;;;;;;;;;;;13.00;55.70;;;;;;5054064;28;19947;-91
2022/11/27 11:14:23;;;;;;;;;;;13.10;53.60;;;;;;5054174;28;19947;-91
2022/11/27 11:16:49;;;;;;;;;;;13.20;53.50;;;;;;5053764;28;20649;-91
2022/11/27 11:19:35;;;;;;;;;;;13.40;52.70;;;;;;5040942;28;19943;-91
2022/11/27 11:22:11;;;;;;;;;;;13.60;53.60;;;;;;5053476;28;19940;-91
2022/11/27 11:24:38;;;;;;;;;;;13.90;53.50;;;;;;5053832;28;19975;-91
2022/11/27 11:27:09;;;;;;;;;;;14.00;52.50;;;;;;5053138;28;19954;-91
2022/11/27 11:29:35;;;;;;;;;;;14.20;52.20;;;;;;5053044;28;20110;-91
2022/11/27 11:32:11;;;;;;;;;;;14.20;51.90;;;;;;5053546;28;20045;-91
2022/11/27 11:34:54;;;;;;;;;;;14.50;52.60;;;;;;5054084;28;19938;-91
2022/11/27 11:37:24;;;;;;;;;;;15.10;51.90;;;;;;5053800;28;20408;-92
2022/11/27 11:39:55;;;;;;;;;;;16.20;48.90;;;;;;5053211;28;19982;-92
2022/11/27 11:42:22;;;;;;;;;;;17.10;45.70;;;;;;5053929;28;19937;-92
2022/11/27 11:45:00;;;;;;;;;;;18.10;42.10;;;;;;5053934;28;19936;-91
2022/11/27 11:47:25;;;;;;;;;;;18.80;40.60;;;;;;5053689;28;20033;-91
2022/11/27 11:49:52;;;;;;;;;;;19.30;39.40;;;;;;5053673;28;20482;-92
2022/11/27 11:52:21;;;;;;;;;;;20.00;38.60;;;;;;5053670;28;20046;-91
2022/11/27 11:54:52;;;;;;;;;;;20.50;36.00;;;;;;5053621;28;19946;-91
2022/11/27 11:57:27;;;;;;;;;;;20.80;35.60;;;;;;5053421;28;20423;-91
2022/11/27 11:59:55;;;;;;;;;;;21.20;35.20;;;;;;5053615;28;19948;-91
2022/11/27 12:02:21;;;;;;;;;;;21.40;34.10;;;;;;5053528;28;19940;-91
2022/11/27 12:05:02;;;;;;;;;;;21.80;33.50;;;;;;5053541;28;19941;-91
2022/11/27 12:07:31;;;;;;;;;;;22.00;33.50;;;;;;5053247;28;20030;-92
2022/11/27 12:10:03;;;;;;;;;;;22.30;33.10;;;;;;5053378;28;19966;-92
2022/11/27 12:12:41;;;;;;;;;;;22.70;32.40;;;;;;5053434;28;19941;-91
2022/11/27 12:15:25;;;;;;;;;;;23.00;31.10;;;;;;5053413;28;20039;-92
2022/11/27 12:17:59;;;;;;;;;;;23.10;29.90;;;;;;5053146;28;20016;-91
2022/11/27 12:20:25;;;;;;;;;;;21.80;30.00;;;;;;5053257;28;19989;-92
2022/11/27 12:23:09;;;;;;;;;;;22.30;31.10;;;;;;5053060;28;19940;-92
2022/11/27 12:25:36;;;;;;;;;;;23.10;29.30;;;;;;5052522;28;19947;-91
2022/11/27 12:28:11;;;;;;;;;;;23.60;29.10;;;;;;5053281;28;19939;-91
2022/11/27 12:30:55;;;;;;;;;;;23.90;28.60;;;;;;5053093;28;19981;-92
2022/11/27 12:33:26;;;;;;;;;;;24.00;28.10;;;;;;5053156;28;19940;-91
2022/11/27 12:35:58;;;;;;;;;;;24.20;28.70;;;;;;5053095;28;20053;-91
2022/11/27 12:38:24;;;;;;;;;;;24.40;27.50;;;;;;5053124;28;20458;-92
2022/11/27 12:40:49;;;;;;;;;;;24.40;28.20;;;;;;5053005;28;19949;-92
2022/11/27 12:43:29;;;;;;;;;;;24.70;26.50;;;;;;5052352;28;20086;-92
2022/11/27 12:46:13;;;;;;;;;;;24.70;26.90;;;;;;5053024;28;19950;-92
2022/11/27 12:48:40;;;;;;;;;;;24.90;26.30;;;;;;5052702;28;19976;-92
2022/11/27 12:51:12;;;;;;;;;;;24.50;26.20;;;;;;5052942;28;20413;-91
2022/11/27 12:53:40;;;;;;;;;;;24.20;27.10;;;;;;5052771;28;20009;-92
2022/11/27 12:56:38;;;;;;;;;;;23.50;28.30;;;;;;5051624;28;19946;-91
2022/11/27 12:59:10;;;;;;;;;;;22.50;29.00;;;;;;5029614;28;20036;-91
2022/11/27 13:01:45;;;;;;;;;;;21.60;29.50;;;;;;5052776;28;19950;-92
2022/11/27 13:04:17;;;;;;;;;;;21.30;30.10;;;;;;5052856;28;19938;-91
2022/11/27 13:06:48;;;;;;;;;;;21.70;30.60;;;;;;5052837;28;19969;-91
2022/11/27 13:09:25;;;;;;;;;;;22.80;28.90;;;;;;5052559;28;19943;-91
2022/11/27 13:11:50;;;;;;;;;;;23.50;27.60;;;;;;5052806;28;19989;-92
2022/11/27 13:14:20;;;;;;;;;;;23.70;28.30;;;;;;5052754;28;19984;-92
2022/11/27 13:16:49;;;;;;;;;;;23.40;28.60;;;;;;5052694;28;19945;-92
2022/11/27 13:19:30;;;;;;;;;;;22.80;28.70;;;;;;5052482;28;19956;-91
2022/11/27 13:21:56;;;;;;;;;;;23.60;27.80;;;;;;5052691;28;19944;-91
2022/11/27 13:24:23;;;;;;;;;;;24.30;26.80;;;;;;5052479;28;20348;-91
2022/11/27 13:27:04;;;;;;;;;;;24.70;26.00;;;;;;5052654;28;19948;-91
2022/11/27 13:29:32;;;;;;;;;;;24.80;25.90;;;;;;5052268;28;19953;-91
2022/11/27 13:32:01;;;;;;;;;;;24.80;25.30;;;;;;5052607;28;19937;-92
2022/11/27 13:34:28;;;;;;;;;;;24.70;25.40;;;;;;5052609;28;20483;-91
2022/11/27 13:37:04;;;;;;;;;;;24.50;25.30;;;;;;5052559;28;20030;-91
2022/11/27 13:39:33;;;;;;;;;;;24.80;25.40;;;;;;5051030;28;20467;-91
2022/11/27 13:42:01;;;;;;;;;;;24.80;25.10;;;;;;5052567;28;19979;-91
2022/11/27 13:44:27;;;;;;;;;;;24.20;25.50;;;;;;5052525;28;19947;-92
2022/11/27 13:46:54;;;;;;;;;;;24.50;25.60;;;;;;5052496;28;19936;-91
2022/11/27 13:49:23;;;;;;;;;;;24.30;25.40;;;;;;5052203;28;19946;-92
2022/11/27 13:51:49;;;;;;;;;;;24.20;25.40;;;;;;5052383;28;19950;-92
2022/11/27 13:54:16;;;;;;;;;;;24.20;25.60;;;;;;5052302;28;20557;-91
2022/11/27 13:56:42;;;;;;;;;;;23.40;27.10;;;;;;5054805;28;19942;-92
2022/11/27 13:59:28;;;;;;;;;;;22.60;28.80;;;;;;5055718;28;19952;-91
2022/11/27 14:01:57;;;;;;;;;;;22.80;28.90;;;;;;5055456;28;19948;-91
2022/11/27 14:04:24;;;;;;;;;;;23.70;27.10;;;;;;5055849;28;19937;-91
2022/11/27 14:07:02;;;;;;;;;;;24.20;26.80;;;;;;5055765;28;19997;-91
2022/11/27 14:09:31;;;;;;;;;;;24.30;26.30;;;;;;5055392;28;20011;-91
2022/11/27 14:11:57;;;;;;;;;;;24.30;25.40;;;;;;5055672;28;20013;-91
2022/11/27 14:14:25;;;;;;;;;;;24.30;25.80;;;;;;5055588;28;20414;-91
2022/11/27 14:17:07;;;;;;;;;;;23.30;27.50;;;;;;5055828;28;19940;-91
2022/11/27 14:19:35;;;;;;;;;;;22.10;28.60;;;;;;5055288;28;19949;-91
2022/11/27 14:22:12;;;;;;;;;;;21.00;30.70;;;;;;5055536;28;19937;-91
2022/11/27 14:24:45;;;;;;;;;;;20.70;30.20;;;;;;5055266;28;20405;-91
2022/11/27 14:27:15;;;;;;;;;;;20.10;32.00;;;;;;5055626;28;20010;-91
2022/11/27 14:29:41;;;;;;;;;;;19.40;34.00;;;;;;5055233;28;19955;-91
2022/11/27 14:32:09;;;;;;;;;;;19.30;33.80;;;;;;5054850;28;20041;-91
2022/11/27 14:34:34;;;;;;;;;;;19.60;32.50;;;;;;5055034;28;20005;-91
2022/11/27 14:37:00;;;;;;;;;;;19.40;33.10;;;;;;5055186;28;19935;-91